sensor_id;sensor_type;location;lat;lon;timestamp;P1;durP1;ratioP1;P2;durP2;ratioP2
21213;SDS011;10764;50.850;2.904;2022-10-16T00:01:15;1208.13;;;999.90;;
21213;SDS011;10764;50.850;2.904;2022-10-16T00:03:43;1216.30;;;999.90;;
21213;SDS011;10764;50.850;2.904;2022-10-16T00:06:10;1223.13;;;999.90;;
21213;SDS011;10764;50.850;2.904;2022-10-16T00:08:38;1206.75;;;999.90;;
21213;SDS011;10764;50.850;2.904;2022-10-16T00:11:06;1201.80;;;999.90;;
21213;SDS011;10764;50.850;2.904;2022-10-16T00:13:35;1217.43;;;999.90;;
21213;SDS011;10764;50.850;2.904;2022-10-16T00:16:03;1208.70;;;999.90;;
21213;SDS011;10764;50.850;2.904;2022-10-16T00:18:30;1207.22;;;999.90;;
21213;SDS011;10764;50.850;2.904;2022-10-16T00:21:04;1212.57;;;999.90;;
21213;SDS011;10764;50.850;2.904;2022-10-16T00:23:31;1213.97;;;999.90;;
21213;SDS011;10764;50.850;2.904;2022-10-16T00:26:00;1214.43;;;999.90;;
21213;SDS011;10764;50.850;2.904;2022-10-16T00:28:28;1200.70;;;999.90;;
21213;SDS011;10764;50.850;2.904;2022-10-16T00:30:55;1203.10;;;999.90;;
21213;SDS011;10764;50.850;2.904;2022-10-16T00:33:22;1221.25;;;999.90;;
21213;SDS011;10764;50.850;2.904;2022-10-16T00:35:50;1220.80;;;999.90;;
21213;SDS011;10764;50.850;2.904;2022-10-16T00:38:17;1216.72;;;999.90;;
21213;SDS011;10764;50.850;2.904;2022-10-16T00:40:44;1220.93;;;999.90;;
21213;SDS011;10764;50.850;2.904;2022-10-16T00:43:32;1211.65;;;999.90;;
21213;SDS011;10764;50.850;2.904;2022-10-16T00:46:01;1210.85;;;999.90;;
21213;SDS011;10764;50.850;2.904;2022-10-16T00:48:29;1197.45;;;999.90;;
21213;SDS011;10764;50.850;2.904;2022-10-16T00:50:56;1203.25;;;999.90;;
21213;SDS011;10764;50.850;2.904;2022-10-16T00:53:24;1192.00;;;999.90;;
21213;SDS011;10764;50.850;2.904;2022-10-16T00:55:52;1190.72;;;999.90;;
21213;SDS011;10764;50.850;2.904;2022-10-16T00:58:19;1191.40;;;999.90;;
21213;SDS011;10764;50.850;2.904;2022-10-16T01:00:47;1189.03;;;999.90;;
21213;SDS011;10764;50.850;2.904;2022-10-16T01:05:53;1192.10;;;999.90;;
21213;SDS011;10764;50.850;2.904;2022-10-16T01:11:26;1196.78;;;999.90;;
21213;SDS011;10764;50.850;2.904;2022-10-16T01:13:54;1214.10;;;999.90;;
21213;SDS011;10764;50.850;2.904;2022-10-16T01:16:34;1201.05;;;999.90;;
21213;SDS011;10764;50.850;2.904;2022-10-16T01:19:26;1203.70;;;999.90;;
21213;SDS011;10764;50.850;2.904;2022-10-16T01:21:58;1209.28;;;999.90;;
21213;SDS011;10764;50.850;2.904;2022-10-16T01:27:14;1197.17;;;999.90;;
21213;SDS011;10764;50.850;2.904;2022-10-16T01:29:48;1192.07;;;999.90;;
21213;SDS011;10764;50.850;2.904;2022-10-16T01:32:18;1205.47;;;999.90;;
21213;SDS011;10764;50.850;2.904;2022-10-16T01:34:48;1206.53;;;999.90;;
21213;SDS011;10764;50.850;2.904;2022-10-16T01:37:20;1209.57;;;999.90;;
21213;SDS011;10764;50.850;2.904;2022-10-16T01:39:59;1207.22;;;999.90;;
21213;SDS011;10764;50.850;2.904;2022-10-16T01:42:30;1210.35;;;999.90;;
21213;SDS011;10764;50.850;2.904;2022-10-16T01:45:02;1210.03;;;999.90;;
21213;SDS011;10764;50.850;2.904;2022-10-16T01:47:32;1213.72;;;999.90;;
21213;SDS011;10764;50.850;2.904;2022-10-16T01:50:02;1212.18;;;999.90;;
21213;SDS011;10764;50.850;2.904;2022-10-16T01:52:31;1213.05;;;999.90;;
21213;SDS011;10764;50.850;2.904;2022-10-16T01:55:03;1217.20;;;999.90;;
21213;SDS011;10764;50.850;2.904;2022-10-16T01:57:30;1214.20;;;999.90;;
21213;SDS011;10764;50.850;2.904;2022-10-16T02:00:03;1213.10;;;999.90;;
21213;SDS011;10764;50.850;2.904;2022-10-16T02:02:37;1218.57;;;999.90;;
21213;SDS011;10764;50.850;2.904;2022-10-16T02:05:08;1212.20;;;999.90;;
21213;SDS011;10764;50.850;2.904;2022-10-16T02:07:39;1219.80;;;999.90;;
21213;SDS011;10764;50.850;2.904;2022-10-16T02:10:08;1224.13;;;999.90;;
21213;SDS011;10764;50.850;2.904;2022-10-16T02:12:36;1213.70;;;999.90;;
21213;SDS011;10764;50.850;2.904;2022-10-16T02:15:06;1214.78;;;999.90;;
21213;SDS011;10764;50.850;2.904;2022-10-16T02:17:33;1219.60;;;999.90;;
21213;SDS011;10764;50.850;2.904;2022-10-16T02:20:00;1207.97;;;999.90;;
21213;SDS011;10764;50.850;2.904;2022-10-16T02:22:36;1219.65;;;999.90;;
21213;SDS011;10764;50.850;2.904;2022-10-16T02:25:15;1202.13;;;999.90;;
21213;SDS011;10764;50.850;2.904;2022-10-16T02:32:59;1198.97;;;999.90;;
21213;SDS011;10764;50.850;2.904;2022-10-16T02:35:28;1202.90;;;999.90;;
21213;SDS011;10764;50.850;2.904;2022-10-16T02:37:56;1190.85;;;999.90;;
21213;SDS011;10764;50.850;2.904;2022-10-16T02:40:24;1198.22;;;999.90;;
21213;SDS011;10764;50.850;2.904;2022-10-16T02:42:52;1198.65;;;999.90;;
21213;SDS011;10764;50.850;2.904;2022-10-16T02:45:20;1197.25;;;999.90;;
21213;SDS011;10764;50.850;2.904;2022-10-16T02:47:48;1198.68;;;999.90;;
21213;SDS011;10764;50.850;2.904;2022-10-16T02:50:15;1193.32;;;999.90;;
21213;SDS011;10764;50.850;2.904;2022-10-16T02:52:42;1200.03;;;999.90;;
21213;SDS011;10764;50.850;2.904;2022-10-16T02:55:09;1191.30;;;999.90;;
21213;SDS011;10764;50.850;2.904;2022-10-16T02:57:37;1191.60;;;999.90;;
21213;SDS011;10764;50.850;2.904;2022-10-16T03:00:07;1199.97;;;999.90;;
21213;SDS011;10764;50.850;2.904;2022-10-16T03:02:34;1197.20;;;999.90;;
21213;SDS011;10764;50.850;2.904;2022-10-16T03:05:01;1198.38;;;999.90;;
21213;SDS011;10764;50.850;2.904;2022-10-16T03:07:29;1199.22;;;999.90;;
21213;SDS011;10764;50.850;2.904;2022-10-16T03:09:56;1204.50;;;999.90;;
21213;SDS011;10764;50.850;2.904;2022-10-16T03:12:26;1190.72;;;999.90;;
21213;SDS011;10764;50.850;2.904;2022-10-16T03:14:54;1191.20;;;999.90;;
21213;SDS011;10764;50.850;2.904;2022-10-16T03:17:22;1190.60;;;999.90;;
21213;SDS011;10764;50.850;2.904;2022-10-16T03:19:50;1191.63;;;999.90;;
21213;SDS011;10764;50.850;2.904;2022-10-16T03:22:17;1199.00;;;999.90;;
21213;SDS011;10764;50.850;2.904;2022-10-16T03:24:44;1202.75;;;999.90;;
21213;SDS011;10764;50.850;2.904;2022-10-16T03:27:12;1214.28;;;999.90;;
21213;SDS011;10764;50.850;2.904;2022-10-16T03:29:39;1214.55;;;999.90;;
21213;SDS011;10764;50.850;2.904;2022-10-16T03:32:06;1219.03;;;999.90;;
21213;SDS011;10764;50.850;2.904;2022-10-16T03:34:33;1222.13;;;999.90;;
21213;SDS011;10764;50.850;2.904;2022-10-16T03:37:00;1224.45;;;999.90;;
21213;SDS011;10764;50.850;2.904;2022-10-16T03:39:28;1220.75;;;999.90;;
21213;SDS011;10764;50.850;2.904;2022-10-16T03:41:55;1220.67;;;999.90;;
21213;SDS011;10764;50.850;2.904;2022-10-16T03:44:22;1216.47;;;999.90;;
21213;SDS011;10764;50.850;2.904;2022-10-16T03:46:49;1210.40;;;999.90;;
21213;SDS011;10764;50.850;2.904;2022-10-16T03:49:16;1209.95;;;999.90;;
21213;SDS011;10764;50.850;2.904;2022-10-16T03:51:44;1207.50;;;999.90;;
21213;SDS011;10764;50.850;2.904;2022-10-16T03:54:11;1210.90;;;999.90;;
21213;SDS011;10764;50.850;2.904;2022-10-16T03:56:38;1211.07;;;999.90;;
21213;SDS011;10764;50.850;2.904;2022-10-16T03:59:05;1200.72;;;999.90;;
21213;SDS011;10764;50.850;2.904;2022-10-16T04:01:33;1189.18;;;999.90;;
21213;SDS011;10764;50.850;2.904;2022-10-16T04:04:00;1192.25;;;999.90;;
21213;SDS011;10764;50.850;2.904;2022-10-16T04:06:27;1201.10;;;999.90;;
21213;SDS011;10764;50.850;2.904;2022-10-16T04:08:54;1214.60;;;999.90;;
21213;SDS011;10764;50.850;2.904;2022-10-16T04:11:22;1213.40;;;999.90;;
21213;SDS011;10764;50.850;2.904;2022-10-16T04:13:49;1214.18;;;999.90;;
21213;SDS011;10764;50.850;2.904;2022-10-16T04:16:16;1211.77;;;999.90;;
21213;SDS011;10764;50.850;2.904;2022-10-16T04:18:43;1211.20;;;999.90;;
21213;SDS011;10764;50.850;2.904;2022-10-16T04:21:10;1216.95;;;999.90;;
21213;SDS011;10764;50.850;2.904;2022-10-16T04:23:38;1218.55;;;999.90;;
21213;SDS011;10764;50.850;2.904;2022-10-16T04:26:05;1221.15;;;999.90;;
21213;SDS011;10764;50.850;2.904;2022-10-16T04:28:32;1218.63;;;999.90;;
21213;SDS011;10764;50.850;2.904;2022-10-16T04:30:59;1215.18;;;999.90;;
21213;SDS011;10764;50.850;2.904;2022-10-16T04:33:27;1217.33;;;999.90;;
21213;SDS011;10764;50.850;2.904;2022-10-16T04:35:57;1216.65;;;999.90;;
21213;SDS011;10764;50.850;2.904;2022-10-16T04:38:25;1216.90;;;999.90;;
21213;SDS011;10764;50.850;2.904;2022-10-16T04:40:52;1216.90;;;999.90;;
21213;SDS011;10764;50.850;2.904;2022-10-16T04:43:19;1220.88;;;999.90;;
21213;SDS011;10764;50.850;2.904;2022-10-16T04:45:46;1221.43;;;999.90;;
21213;SDS011;10764;50.850;2.904;2022-10-16T04:48:14;1222.73;;;999.90;;
21213;SDS011;10764;50.850;2.904;2022-10-16T04:50:41;1221.45;;;999.90;;
21213;SDS011;10764;50.850;2.904;2022-10-16T04:53:08;1222.35;;;999.90;;
21213;SDS011;10764;50.850;2.904;2022-10-16T04:55:35;1226.63;;;999.90;;
21213;SDS011;10764;50.850;2.904;2022-10-16T04:58:04;1227.75;;;999.90;;
21213;SDS011;10764;50.850;2.904;2022-10-16T05:00:31;1225.18;;;999.90;;
21213;SDS011;10764;50.850;2.904;2022-10-16T05:02:58;1222.60;;;999.90;;
21213;SDS011;10764;50.850;2.904;2022-10-16T05:05:27;1226.30;;;999.90;;
21213;SDS011;10764;50.850;2.904;2022-10-16T05:07:54;1226.15;;;999.90;;
21213;SDS011;10764;50.850;2.904;2022-10-16T05:10:21;1224.78;;;999.90;;
21213;SDS011;10764;50.850;2.904;2022-10-16T05:12:48;1221.93;;;999.90;;
21213;SDS011;10764;50.850;2.904;2022-10-16T05:15:17;1227.95;;;999.90;;
21213;SDS011;10764;50.850;2.904;2022-10-16T05:17:44;1223.15;;;999.90;;
21213;SDS011;10764;50.850;2.904;2022-10-16T05:20:12;1226.10;;;999.90;;
21213;SDS011;10764;50.850;2.904;2022-10-16T05:22:39;1223.33;;;999.90;;
21213;SDS011;10764;50.850;2.904;2022-10-16T05:25:06;1222.63;;;999.90;;
21213;SDS011;10764;50.850;2.904;2022-10-16T05:27:33;1229.78;;;999.90;;
21213;SDS011;10764;50.850;2.904;2022-10-16T05:30:00;1226.82;;;999.90;;
21213;SDS011;10764;50.850;2.904;2022-10-16T05:32:28;1230.85;;;999.90;;
21213;SDS011;10764;50.850;2.904;2022-10-16T05:34:55;1226.45;;;999.90;;
21213;SDS011;10764;50.850;2.904;2022-10-16T05:37:22;1229.75;;;999.90;;
21213;SDS011;10764;50.850;2.904;2022-10-16T05:39:50;1228.05;;;999.90;;
21213;SDS011;10764;50.850;2.904;2022-10-16T05:42:17;1233.97;;;999.90;;
21213;SDS011;10764;50.850;2.904;2022-10-16T05:44:45;1232.93;;;999.90;;
21213;SDS011;10764;50.850;2.904;2022-10-16T05:47:12;1228.40;;;999.90;;
21213;SDS011;10764;50.850;2.904;2022-10-16T05:49:40;1225.65;;;999.90;;
21213;SDS011;10764;50.850;2.904;2022-10-16T05:52:07;1231.13;;;999.90;;
21213;SDS011;10764;50.850;2.904;2022-10-16T05:54:34;1229.85;;;999.90;;
21213;SDS011;10764;50.850;2.904;2022-10-16T05:57:02;1226.43;;;999.90;;
21213;SDS011;10764;50.850;2.904;2022-10-16T05:59:31;1221.35;;;999.90;;
21213;SDS011;10764;50.850;2.904;2022-10-16T06:01:59;1223.70;;;999.90;;
21213;SDS011;10764;50.850;2.904;2022-10-16T06:04:26;1223.55;;;999.90;;
21213;SDS011;10764;50.850;2.904;2022-10-16T06:06:53;1222.37;;;999.90;;
21213;SDS011;10764;50.850;2.904;2022-10-16T06:09:23;1228.57;;;999.90;;
21213;SDS011;10764;50.850;2.904;2022-10-16T06:11:50;1222.47;;;999.90;;
21213;SDS011;10764;50.850;2.904;2022-10-16T06:14:18;1218.53;;;999.90;;
21213;SDS011;10764;50.850;2.904;2022-10-16T06:16:45;1228.43;;;999.90;;
21213;SDS011;10764;50.850;2.904;2022-10-16T06:19:12;1213.70;;;999.90;;
21213;SDS011;10764;50.850;2.904;2022-10-16T06:21:39;1218.77;;;999.90;;
21213;SDS011;10764;50.850;2.904;2022-10-16T06:24:07;1217.80;;;999.90;;
21213;SDS011;10764;50.850;2.904;2022-10-16T06:26:34;1216.38;;;999.90;;
21213;SDS011;10764;50.850;2.904;2022-10-16T06:29:02;1217.28;;;999.90;;
21213;SDS011;10764;50.850;2.904;2022-10-16T06:31:29;1226.60;;;999.90;;
21213;SDS011;10764;50.850;2.904;2022-10-16T06:33:59;1223.32;;;999.90;;
21213;SDS011;10764;50.850;2.904;2022-10-16T06:36:27;1221.05;;;999.90;;
21213;SDS011;10764;50.850;2.904;2022-10-16T06:38:54;1223.40;;;999.90;;
21213;SDS011;10764;50.850;2.904;2022-10-16T06:41:22;1217.25;;;999.90;;
21213;SDS011;10764;50.850;2.904;2022-10-16T06:43:49;1222.23;;;999.90;;
21213;SDS011;10764;50.850;2.904;2022-10-16T06:46:18;1212.83;;;999.90;;
21213;SDS011;10764;50.850;2.904;2022-10-16T06:48:45;1216.55;;;999.90;;
21213;SDS011;10764;50.850;2.904;2022-10-16T06:51:14;1221.80;;;999.90;;
21213;SDS011;10764;50.850;2.904;2022-10-16T06:53:42;1221.65;;;999.90;;
21213;SDS011;10764;50.850;2.904;2022-10-16T06:56:30;1219.78;;;999.90;;
21213;SDS011;10764;50.850;2.904;2022-10-16T06:58:58;1223.75;;;999.90;;
21213;SDS011;10764;50.850;2.904;2022-10-16T07:01:26;1213.25;;;999.90;;
21213;SDS011;10764;50.850;2.904;2022-10-16T07:03:53;1214.82;;;999.90;;
21213;SDS011;10764;50.850;2.904;2022-10-16T07:06:22;1217.10;;;999.90;;
21213;SDS011;10764;50.850;2.904;2022-10-16T07:08:49;1224.15;;;999.90;;
21213;SDS011;10764;50.850;2.904;2022-10-16T07:11:17;1221.05;;;999.90;;
21213;SDS011;10764;50.850;2.904;2022-10-16T07:13:46;1222.95;;;999.90;;
21213;SDS011;10764;50.850;2.904;2022-10-16T07:16:21;1215.88;;;999.90;;
21213;SDS011;10764;50.850;2.904;2022-10-16T07:18:49;1220.10;;;999.90;;
21213;SDS011;10764;50.850;2.904;2022-10-16T07:21:21;1213.63;;;999.90;;
21213;SDS011;10764;50.850;2.904;2022-10-16T07:23:56;1214.40;;;999.90;;
21213;SDS011;10764;50.850;2.904;2022-10-16T07:26:24;1214.80;;;999.90;;
21213;SDS011;10764;50.850;2.904;2022-10-16T07:28:51;1217.40;;;999.90;;
21213;SDS011;10764;50.850;2.904;2022-10-16T07:31:19;1207.00;;;999.90;;
21213;SDS011;10764;50.850;2.904;2022-10-16T07:33:47;1209.03;;;999.90;;
21213;SDS011;10764;50.850;2.904;2022-10-16T07:36:15;1207.22;;;999.90;;
21213;SDS011;10764;50.850;2.904;2022-10-16T07:38:45;1216.32;;;999.90;;
21213;SDS011;10764;50.850;2.904;2022-10-16T07:41:14;1209.50;;;999.90;;
21213;SDS011;10764;50.850;2.904;2022-10-16T07:43:47;1220.38;;;999.90;;
21213;SDS011;10764;50.850;2.904;2022-10-16T07:46:15;1212.65;;;999.90;;
21213;SDS011;10764;50.850;2.904;2022-10-16T07:48:43;1215.05;;;999.90;;
21213;SDS011;10764;50.850;2.904;2022-10-16T07:51:14;1215.07;;;999.90;;
21213;SDS011;10764;50.850;2.904;2022-10-16T07:53:41;1221.82;;;999.90;;
21213;SDS011;10764;50.850;2.904;2022-10-16T07:56:08;1220.20;;;999.90;;
21213;SDS011;10764;50.850;2.904;2022-10-16T07:58:36;1215.88;;;999.90;;
21213;SDS011;10764;50.850;2.904;2022-10-16T08:01:04;1208.37;;;999.90;;
21213;SDS011;10764;50.850;2.904;2022-10-16T08:03:32;1210.88;;;999.90;;
21213;SDS011;10764;50.850;2.904;2022-10-16T08:05:59;1217.03;;;999.90;;
21213;SDS011;10764;50.850;2.904;2022-10-16T08:08:27;1210.88;;;999.90;;
21213;SDS011;10764;50.850;2.904;2022-10-16T08:10:54;1231.35;;;999.90;;
21213;SDS011;10764;50.850;2.904;2022-10-16T08:13:22;1211.57;;;999.90;;
21213;SDS011;10764;50.850;2.904;2022-10-16T08:15:49;1212.07;;;999.90;;
21213;SDS011;10764;50.850;2.904;2022-10-16T08:18:16;1209.15;;;999.90;;
21213;SDS011;10764;50.850;2.904;2022-10-16T08:20:43;1211.95;;;999.90;;
21213;SDS011;10764;50.850;2.904;2022-10-16T08:23:11;1212.43;;;999.90;;
21213;SDS011;10764;50.850;2.904;2022-10-16T08:25:39;1215.80;;;999.90;;
21213;SDS011;10764;50.850;2.904;2022-10-16T08:28:07;1215.47;;;999.90;;
21213;SDS011;10764;50.850;2.904;2022-10-16T08:30:35;1209.40;;;999.90;;
21213;SDS011;10764;50.850;2.904;2022-10-16T08:33:03;1206.43;;;999.90;;
21213;SDS011;10764;50.850;2.904;2022-10-16T08:35:30;1212.77;;;999.90;;
21213;SDS011;10764;50.850;2.904;2022-10-16T08:37:58;1210.43;;;999.90;;
21213;SDS011;10764;50.850;2.904;2022-10-16T08:40:26;1211.85;;;999.90;;
21213;SDS011;10764;50.850;2.904;2022-10-16T08:51:07;1208.43;;;999.90;;
21213;SDS011;10764;50.850;2.904;2022-10-16T08:53:38;1212.77;;;999.90;;
21213;SDS011;10764;50.850;2.904;2022-10-16T08:56:11;1212.60;;;999.90;;
21213;SDS011;10764;50.850;2.904;2022-10-16T08:58:38;1209.83;;;999.90;;
21213;SDS011;10764;50.850;2.904;2022-10-16T09:01:11;1216.70;;;999.90;;
21213;SDS011;10764;50.850;2.904;2022-10-16T09:03:55;1215.07;;;999.90;;
21213;SDS011;10764;50.850;2.904;2022-10-16T09:16:30;1205.22;;;999.90;;
21213;SDS011;10764;50.850;2.904;2022-10-16T09:19:19;1213.38;;;999.90;;
21213;SDS011;10764;50.850;2.904;2022-10-16T09:22:12;1221.10;;;999.90;;
21213;SDS011;10764;50.850;2.904;2022-10-16T09:24:41;1215.40;;;999.90;;
21213;SDS011;10764;50.850;2.904;2022-10-16T09:27:12;1214.13;;;999.90;;
21213;SDS011;10764;50.850;2.904;2022-10-16T09:29:40;1231.23;;;999.90;;
21213;SDS011;10764;50.850;2.904;2022-10-16T09:32:12;1220.50;;;999.90;;
21213;SDS011;10764;50.850;2.904;2022-10-16T09:34:42;1216.70;;;999.90;;
21213;SDS011;10764;50.850;2.904;2022-10-16T09:37:11;1220.90;;;999.90;;
21213;SDS011;10764;50.850;2.904;2022-10-16T09:39:44;1225.50;;;999.90;;
21213;SDS011;10764;50.850;2.904;2022-10-16T09:42:22;1226.60;;;999.90;;
21213;SDS011;10764;50.850;2.904;2022-10-16T09:44:52;1215.53;;;999.90;;
21213;SDS011;10764;50.850;2.904;2022-10-16T09:47:20;1213.82;;;999.90;;
21213;SDS011;10764;50.850;2.904;2022-10-16T09:49:54;1212.30;;;999.90;;
21213;SDS011;10764;50.850;2.904;2022-10-16T09:52:23;1218.88;;;999.90;;
21213;SDS011;10764;50.850;2.904;2022-10-16T09:57:17;1213.40;;;999.90;;
21213;SDS011;10764;50.850;2.904;2022-10-16T09:59:46;1218.32;;;999.90;;
21213;SDS011;10764;50.850;2.904;2022-10-16T10:02:14;1219.18;;;999.90;;
21213;SDS011;10764;50.850;2.904;2022-10-16T10:04:52;1220.55;;;999.90;;
21213;SDS011;10764;50.850;2.904;2022-10-16T10:07:23;1217.35;;;999.90;;
21213;SDS011;10764;50.850;2.904;2022-10-16T10:09:58;1221.38;;;999.90;;
21213;SDS011;10764;50.850;2.904;2022-10-16T10:12:27;1225.13;;;999.90;;
21213;SDS011;10764;50.850;2.904;2022-10-16T10:14:55;1220.93;;;999.90;;
21213;SDS011;10764;50.850;2.904;2022-10-16T10:17:24;1219.97;;;999.90;;
21213;SDS011;10764;50.850;2.904;2022-10-16T10:19:52;1220.75;;;999.90;;
21213;SDS011;10764;50.850;2.904;2022-10-16T10:27:24;1212.93;;;999.90;;
21213;SDS011;10764;50.850;2.904;2022-10-16T10:33:08;1216.23;;;999.90;;
21213;SDS011;10764;50.850;2.904;2022-10-16T10:35:44;1217.78;;;999.90;;
21213;SDS011;10764;50.850;2.904;2022-10-16T10:41:08;1217.60;;;999.90;;
21213;SDS011;10764;50.850;2.904;2022-10-16T10:49:41;1211.28;;;999.90;;
21213;SDS011;10764;50.850;2.904;2022-10-16T10:54:57;1216.85;;;999.90;;
21213;SDS011;10764;50.850;2.904;2022-10-16T11:11:08;1220.17;;;999.90;;
21213;SDS011;10764;50.850;2.904;2022-10-16T11:13:26;1226.00;;;999.90;;
21213;SDS011;10764;50.850;2.904;2022-10-16T11:15:57;1219.72;;;999.90;;
21213;SDS011;10764;50.850;2.904;2022-10-16T11:21:30;1215.00;;;999.90;;
21213;SDS011;10764;50.850;2.904;2022-10-16T11:24:19;1215.90;;;999.90;;
21213;SDS011;10764;50.850;2.904;2022-10-16T11:26:49;1217.57;;;999.90;;
21213;SDS011;10764;50.850;2.904;2022-10-16T11:29:19;1217.55;;;999.90;;
21213;SDS011;10764;50.850;2.904;2022-10-16T11:31:48;1215.00;;;999.90;;
21213;SDS011;10764;50.850;2.904;2022-10-16T11:39:29;1224.38;;;999.90;;
21213;SDS011;10764;50.850;2.904;2022-10-16T11:42:04;1223.90;;;999.90;;
21213;SDS011;10764;50.850;2.904;2022-10-16T11:47:18;1229.25;;;999.90;;
21213;SDS011;10764;50.850;2.904;2022-10-16T11:52:41;1219.30;;;999.90;;
21213;SDS011;10764;50.850;2.904;2022-10-16T11:55:16;1222.47;;;999.90;;
21213;SDS011;10764;50.850;2.904;2022-10-16T11:57:51;1229.20;;;999.90;;
21213;SDS011;10764;50.850;2.904;2022-10-16T12:08:33;1197.70;;;999.90;;
21213;SDS011;10764;50.850;2.904;2022-10-16T12:16:33;1189.07;;;999.90;;
21213;SDS011;10764;50.850;2.904;2022-10-16T12:19:13;1195.43;;;999.90;;
21213;SDS011;10764;50.850;2.904;2022-10-16T12:21:43;1193.47;;;999.90;;
21213;SDS011;10764;50.850;2.904;2022-10-16T12:24:19;1192.03;;;999.90;;
21213;SDS011;10764;50.850;2.904;2022-10-16T12:26:48;1195.85;;;999.90;;
21213;SDS011;10764;50.850;2.904;2022-10-16T12:29:34;1193.53;;;999.90;;
21213;SDS011;10764;50.850;2.904;2022-10-16T12:32:18;1191.73;;;999.90;;
21213;SDS011;10764;50.850;2.904;2022-10-16T12:35:32;1192.10;;;999.90;;
21213;SDS011;10764;50.850;2.904;2022-10-16T12:40:43;1196.70;;;999.90;;
21213;SDS011;10764;50.850;2.904;2022-10-16T12:46:01;1200.47;;;999.90;;
21213;SDS011;10764;50.850;2.904;2022-10-16T12:48:30;1198.93;;;999.90;;
21213;SDS011;10764;50.850;2.904;2022-10-16T12:51:34;1197.50;;;999.90;;
21213;SDS011;10764;50.850;2.904;2022-10-16T12:54:02;1197.03;;;999.90;;
21213;SDS011;10764;50.850;2.904;2022-10-16T13:10:15;1199.50;;;999.90;;
21213;SDS011;10764;50.850;2.904;2022-10-16T13:17:50;1203.22;;;999.90;;
21213;SDS011;10764;50.850;2.904;2022-10-16T13:20:26;1202.95;;;999.90;;
21213;SDS011;10764;50.850;2.904;2022-10-16T13:25:28;1202.93;;;999.90;;
21213;SDS011;10764;50.850;2.904;2022-10-16T13:30:29;1202.38;;;999.90;;
21213;SDS011;10764;50.850;2.904;2022-10-16T13:33:03;1198.88;;;999.90;;
21213;SDS011;10764;50.850;2.904;2022-10-16T13:35:46;1197.68;;;999.90;;
21213;SDS011;10764;50.850;2.904;2022-10-16T13:38:16;1196.00;;;999.90;;
21213;SDS011;10764;50.850;2.904;2022-10-16T13:43:50;1198.82;;;999.90;;
21213;SDS011;10764;50.850;2.904;2022-10-16T13:46:19;1198.53;;;999.90;;
21213;SDS011;10764;50.850;2.904;2022-10-16T13:49:01;1196.60;;;999.90;;
21213;SDS011;10764;50.850;2.904;2022-10-16T13:51:28;1203.38;;;999.90;;
21213;SDS011;10764;50.850;2.904;2022-10-16T13:53:56;1200.05;;;999.90;;
21213;SDS011;10764;50.850;2.904;2022-10-16T13:56:30;1196.47;;;999.90;;
21213;SDS011;10764;50.850;2.904;2022-10-16T13:58:58;1197.88;;;999.90;;
21213;SDS011;10764;50.850;2.904;2022-10-16T14:01:33;1194.63;;;999.90;;
21213;SDS011;10764;50.850;2.904;2022-10-16T14:04:07;1196.47;;;999.90;;
21213;SDS011;10764;50.850;2.904;2022-10-16T14:06:36;1193.28;;;999.90;;
21213;SDS011;10764;50.850;2.904;2022-10-16T14:09:07;1197.88;;;999.90;;
21213;SDS011;10764;50.850;2.904;2022-10-16T14:11:37;1197.28;;;999.90;;
21213;SDS011;10764;50.850;2.904;2022-10-16T14:14:12;1200.15;;;999.90;;
21213;SDS011;10764;50.850;2.904;2022-10-16T14:16:40;1196.38;;;999.90;;
21213;SDS011;10764;50.850;2.904;2022-10-16T14:19:17;1193.68;;;999.90;;
21213;SDS011;10764;50.850;2.904;2022-10-16T14:21:45;1200.82;;;999.90;;
21213;SDS011;10764;50.850;2.904;2022-10-16T14:24:13;1196.07;;;999.90;;
21213;SDS011;10764;50.850;2.904;2022-10-16T14:26:44;1195.10;;;999.90;;
21213;SDS011;10764;50.850;2.904;2022-10-16T14:29:19;1200.00;;;999.90;;
21213;SDS011;10764;50.850;2.904;2022-10-16T14:31:56;1196.43;;;999.90;;
21213;SDS011;10764;50.850;2.904;2022-10-16T14:36:54;1197.40;;;999.90;;
21213;SDS011;10764;50.850;2.904;2022-10-16T14:39:22;1196.05;;;999.90;;
21213;SDS011;10764;50.850;2.904;2022-10-16T14:41:50;1198.75;;;999.90;;
21213;SDS011;10764;50.850;2.904;2022-10-16T14:44:18;1197.70;;;999.90;;
21213;SDS011;10764;50.850;2.904;2022-10-16T14:46:45;1198.80;;;999.90;;
21213;SDS011;10764;50.850;2.904;2022-10-16T14:49:15;1189.18;;;999.90;;
21213;SDS011;10764;50.850;2.904;2022-10-16T14:51:46;1197.00;;;999.90;;
21213;SDS011;10764;50.850;2.904;2022-10-16T14:54:14;1197.13;;;999.90;;
21213;SDS011;10764;50.850;2.904;2022-10-16T14:56:50;1195.45;;;999.90;;
21213;SDS011;10764;50.850;2.904;2022-10-16T14:59:29;1196.85;;;999.90;;
21213;SDS011;10764;50.850;2.904;2022-10-16T15:01:57;1190.00;;;999.90;;
21213;SDS011;10764;50.850;2.904;2022-10-16T15:04:24;1188.90;;;999.90;;
21213;SDS011;10764;50.850;2.904;2022-10-16T15:06:51;1202.32;;;999.90;;
21213;SDS011;10764;50.850;2.904;2022-10-16T15:09:18;1195.35;;;999.90;;
21213;SDS011;10764;50.850;2.904;2022-10-16T15:11:45;1190.50;;;999.90;;
21213;SDS011;10764;50.850;2.904;2022-10-16T15:14:13;1190.20;;;999.90;;
21213;SDS011;10764;50.850;2.904;2022-10-16T15:16:45;1200.45;;;999.90;;
21213;SDS011;10764;50.850;2.904;2022-10-16T15:19:13;1195.90;;;999.90;;
21213;SDS011;10764;50.850;2.904;2022-10-16T15:21:40;1200.60;;;999.90;;
21213;SDS011;10764;50.850;2.904;2022-10-16T15:24:08;1199.63;;;999.90;;
21213;SDS011;10764;50.850;2.904;2022-10-16T15:26:36;1199.25;;;999.90;;
21213;SDS011;10764;50.850;2.904;2022-10-16T15:29:03;1195.67;;;999.90;;
21213;SDS011;10764;50.850;2.904;2022-10-16T15:31:31;1193.45;;;999.90;;
21213;SDS011;10764;50.850;2.904;2022-10-16T15:33:58;1192.03;;;999.90;;
21213;SDS011;10764;50.850;2.904;2022-10-16T15:36:31;1189.57;;;999.90;;
21213;SDS011;10764;50.850;2.904;2022-10-16T15:39:00;1197.65;;;999.90;;
21213;SDS011;10764;50.850;2.904;2022-10-16T15:41:27;1192.05;;;999.90;;
21213;SDS011;10764;50.850;2.904;2022-10-16T15:43:54;1200.88;;;999.90;;
21213;SDS011;10764;50.850;2.904;2022-10-16T15:46:22;1205.63;;;999.90;;
21213;SDS011;10764;50.850;2.904;2022-10-16T15:48:50;1202.00;;;999.90;;
21213;SDS011;10764;50.850;2.904;2022-10-16T15:51:18;1209.03;;;999.90;;
21213;SDS011;10764;50.850;2.904;2022-10-16T15:53:45;1203.63;;;999.90;;
21213;SDS011;10764;50.850;2.904;2022-10-16T15:56:13;1203.63;;;999.90;;
21213;SDS011;10764;50.850;2.904;2022-10-16T15:58:41;1195.60;;;999.90;;
21213;SDS011;10764;50.850;2.904;2022-10-16T16:01:09;1200.47;;;999.90;;
21213;SDS011;10764;50.850;2.904;2022-10-16T16:03:37;1203.70;;;999.90;;
21213;SDS011;10764;50.850;2.904;2022-10-16T16:06:07;1196.72;;;999.90;;
21213;SDS011;10764;50.850;2.904;2022-10-16T16:08:35;1201.53;;;999.90;;